sensor_id;sensor_type;location;lat;lon;timestamp;pressure;altitude;pressure_sealevel;temperature;humidity
83448;BME280;73376;45.472;-73.568;2024-02-23T00:02:23;100257.75;;;3.65;57.35
83448;BME280;73376;45.472;-73.568;2024-02-23T00:05:00;100247.78;;;3.66;57.58
83448;BME280;73376;45.472;-73.568;2024-02-23T00:07:37;99984.56;;;2.02;57.38
83448;BME280;73376;45.472;-73.568;2024-02-23T00:10:07;99995.19;;;2.04;57.46
83448;BME280;73376;45.472;-73.568;2024-02-23T00:12:39;100037.59;;;2.33;57.60
83448;BME280;73376;45.472;-73.568;2024-02-23T00:15:20;100126.44;;;2.80;57.80
83448;BME280;73376;45.472;-73.568;2024-02-23T00:17:49;100020.69;;;2.16;57.87
83448;BME280;73376;45.472;-73.568;2024-02-23T00:20:15;100162.50;;;3.11;57.63
83448;BME280;73376;45.472;-73.568;2024-02-23T00:22:46;100223.44;;;3.51;57.77
83448;BME280;73376;45.472;-73.568;2024-02-23T00:25:12;100197.59;;;3.34;57.75
83448;BME280;73376;45.472;-73.568;2024-02-23T00:27:49;100123.59;;;2.82;57.83
83448;BME280;73376;45.472;-73.568;2024-02-23T00:30:18;100233.78;;;3.47;57.85
83448;BME280;73376;45.472;-73.568;2024-02-23T00:32:45;100047.13;;;2.44;57.86
83448;BME280;73376;45.472;-73.568;2024-02-23T00:35:11;100233.53;;;3.57;57.86
83448;BME280;73376;45.472;-73.568;2024-02-23T00:37:47;99989.38;;;2.15;57.81
83448;BME280;73376;45.472;-73.568;2024-02-23T00:40:20;100228.28;;;3.55;58.11
83448;BME280;73376;45.472;-73.568;2024-02-23T00:42:46;100011.09;;;2.13;58.21
83448;BME280;73376;45.472;-73.568;2024-02-23T00:45:13;100136.09;;;2.98;58.30
83448;BME280;73376;45.472;-73.568;2024-02-23T00:47:59;100069.91;;;2.64;58.27
83448;BME280;73376;45.472;-73.568;2024-02-23T00:50:29;100086.31;;;2.77;58.17
83448;BME280;73376;45.472;-73.568;2024-02-23T00:52:58;100133.72;;;3.03;58.04
83448;BME280;73376;45.472;-73.568;2024-02-23T00:55:30;100065.16;;;2.66;58.13
83448;BME280;73376;45.472;-73.568;2024-02-23T00:58:03;100214.41;;;3.59;58.56
83448;BME280;73376;45.472;-73.568;2024-02-23T01:00:35;99948.56;;;1.95;58.79
83448;BME280;73376;45.472;-73.568;2024-02-23T01:03:10;100051.72;;;2.58;58.39
83448;BME280;73376;45.472;-73.568;2024-02-23T01:08:58;100206.19;;;3.52;58.62
83448;BME280;73376;45.472;-73.568;2024-02-23T01:11:43;100164.59;;;3.23;58.79
83448;BME280;73376;45.472;-73.568;2024-02-23T01:17:00;99964.31;;;2.06;58.93
83448;BME280;73376;45.472;-73.568;2024-02-23T01:19:30;99991.72;;;2.18;58.65
83448;BME280;73376;45.472;-73.568;2024-02-23T01:22:25;100110.13;;;2.97;58.87
83448;BME280;73376;45.472;-73.568;2024-02-23T01:25:03;100000.63;;;2.19;59.04
83448;BME280;73376;45.472;-73.568;2024-02-23T01:27:33;100065.78;;;2.53;59.33
83448;BME280;73376;45.472;-73.568;2024-02-23T01:30:10;100183.25;;;3.33;59.13
83448;BME280;73376;45.472;-73.568;2024-02-23T01:32:36;100180.44;;;3.26;59.24
83448;BME280;73376;45.472;-73.568;2024-02-23T01:35:05;100219.53;;;3.53;59.08
83448;BME280;73376;45.472;-73.568;2024-02-23T01:37:31;100210.19;;;3.56;59.10
83448;BME280;73376;45.472;-73.568;2024-02-23T01:39:58;100180.47;;;3.41;59.15
83448;BME280;73376;45.472;-73.568;2024-02-23T01:42:25;100198.38;;;3.57;59.30
83448;BME280;73376;45.472;-73.568;2024-02-23T01:44:53;100192.69;;;3.52;59.29
83448;BME280;73376;45.472;-73.568;2024-02-23T01:47:23;100195.03;;;3.55;59.42
83448;BME280;73376;45.472;-73.568;2024-02-23T01:49:50;100172.63;;;3.46;59.73
83448;BME280;73376;45.472;-73.568;2024-02-23T01:52:17;100166.75;;;3.43;59.78
83448;BME280;73376;45.472;-73.568;2024-02-23T01:54:44;100153.88;;;3.30;59.72
83448;BME280;73376;45.472;-73.568;2024-02-23T01:57:10;100140.91;;;3.25;59.72
83448;BME280;73376;45.472;-73.568;2024-02-23T01:59:38;100170.00;;;3.38;59.89
83448;BME280;73376;45.472;-73.568;2024-02-23T02:02:04;100159.41;;;3.37;60.14
83448;BME280;73376;45.472;-73.568;2024-02-23T02:04:30;100154.25;;;3.27;60.26
83448;BME280;73376;45.472;-73.568;2024-02-23T02:06:58;100130.56;;;3.14;60.32
83448;BME280;73376;45.472;-73.568;2024-02-23T02:09:28;100153.41;;;3.26;60.47
83448;BME280;73376;45.472;-73.568;2024-02-23T02:11:54;100167.75;;;3.27;60.69
83448;BME280;73376;45.472;-73.568;2024-02-23T02:14:20;100184.34;;;3.39;60.98
83448;BME280;73376;45.472;-73.568;2024-02-23T02:16:45;100158.50;;;3.21;60.66
83448;BME280;73376;45.472;-73.568;2024-02-23T02:19:12;100164.34;;;3.33;60.60
83448;BME280;73376;45.472;-73.568;2024-02-23T02:21:39;100159.09;;;3.31;60.47
83448;BME280;73376;45.472;-73.568;2024-02-23T02:24:06;100133.84;;;3.24;60.59
83448;BME280;73376;45.472;-73.568;2024-02-23T02:26:36;100148.03;;;3.26;60.77
83448;BME280;73376;45.472;-73.568;2024-02-23T02:29:02;100147.66;;;3.29;60.79
83448;BME280;73376;45.472;-73.568;2024-02-23T02:31:29;100133.53;;;3.19;61.06
83448;BME280;73376;45.472;-73.568;2024-02-23T02:33:56;100118.56;;;3.17;60.97
83448;BME280;73376;45.472;-73.568;2024-02-23T02:36:22;100153.13;;;3.36;61.15
83448;BME280;73376;45.472;-73.568;2024-02-23T02:38:48;100134.03;;;3.23;60.92
83448;BME280;73376;45.472;-73.568;2024-02-23T02:41:15;100154.00;;;3.37;61.15
83448;BME280;73376;45.472;-73.568;2024-02-23T02:43:45;100138.88;;;3.27;61.16
83448;BME280;73376;45.472;-73.568;2024-02-23T02:46:11;100140.84;;;3.34;61.06
83448;BME280;73376;45.472;-73.568;2024-02-23T02:48:37;100127.97;;;3.21;61.16
83448;BME280;73376;45.472;-73.568;2024-02-23T02:51:06;100125.44;;;3.19;61.18
83448;BME280;73376;45.472;-73.568;2024-02-23T02:53:32;100140.19;;;3.31;61.36
83448;BME280;73376;45.472;-73.568;2024-02-23T02:56:00;100130.78;;;3.27;61.34
83448;BME280;73376;45.472;-73.568;2024-02-23T02:58:26;100109.16;;;3.13;61.65
83448;BME280;73376;45.472;-73.568;2024-02-23T03:00:52;100134.31;;;3.28;61.82
83448;BME280;73376;45.472;-73.568;2024-02-23T03:03:19;100115.03;;;3.16;61.60
83448;BME280;73376;45.472;-73.568;2024-02-23T03:05:48;100124.44;;;3.20;61.79
83448;BME280;73376;45.472;-73.568;2024-02-23T03:08:13;100134.69;;;3.25;61.54
83448;BME280;73376;45.472;-73.568;2024-02-23T03:10:39;100149.97;;;3.32;61.98
83448;BME280;73376;45.472;-73.568;2024-02-23T03:13:05;100140.91;;;3.25;61.86
83448;BME280;73376;45.472;-73.568;2024-02-23T03:15:32;100135.59;;;3.17;62.19
83448;BME280;73376;45.472;-73.568;2024-02-23T03:18:00;100114.91;;;3.10;62.13
83448;BME280;73376;45.472;-73.568;2024-02-23T03:20:27;100087.34;;;2.99;61.91
83448;BME280;73376;45.472;-73.568;2024-02-23T03:22:55;100112.22;;;3.10;61.95
83448;BME280;73376;45.472;-73.568;2024-02-23T03:25:21;100091.13;;;3.05;61.98
83448;BME280;73376;45.472;-73.568;2024-02-23T03:27:47;100104.03;;;3.18;61.93
83448;BME280;73376;45.472;-73.568;2024-02-23T03:30:14;100094.78;;;3.12;62.11
83448;BME280;73376;45.472;-73.568;2024-02-23T03:32:43;100061.06;;;2.93;62.21
83448;BME280;73376;45.472;-73.568;2024-02-23T03:35:09;100129.38;;;3.31;62.46
83448;BME280;73376;45.472;-73.568;2024-02-23T03:37:35;100105.53;;;3.20;62.36
83448;BME280;73376;45.472;-73.568;2024-02-23T03:40:06;100107.66;;;3.25;62.79
83448;BME280;73376;45.472;-73.568;2024-02-23T03:42:32;100100.19;;;3.12;62.99
83448;BME280;73376;45.472;-73.568;2024-02-23T03:44:58;100110.63;;;3.15;63.06
83448;BME280;73376;45.472;-73.568;2024-02-23T03:47:24;100119.75;;;3.14;63.08
83448;BME280;73376;45.472;-73.568;2024-02-23T03:49:50;100094.03;;;3.03;62.98
83448;BME280;73376;45.472;-73.568;2024-02-23T03:52:16;100066.34;;;2.87;63.31
83448;BME280;73376;45.472;-73.568;2024-02-23T03:54:42;100089.47;;;3.04;63.43
83448;BME280;73376;45.472;-73.568;2024-02-23T03:57:08;100073.81;;;2.99;63.82
83448;BME280;73376;45.472;-73.568;2024-02-23T03:59:36;100039.41;;;2.78;63.63
83448;BME280;73376;45.472;-73.568;2024-02-23T04:02:06;100089.38;;;3.12;63.73
83448;BME280;73376;45.472;-73.568;2024-02-23T04:04:33;100048.94;;;2.89;63.92
83448;BME280;73376;45.472;-73.568;2024-02-23T04:06:59;100055.75;;;3.00;64.04
83448;BME280;73376;45.472;-73.568;2024-02-23T04:09:25;100082.16;;;3.13;63.90
83448;BME280;73376;45.472;-73.568;2024-02-23T04:11:51;100044.84;;;2.93;63.89
83448;BME280;73376;45.472;-73.568;2024-02-23T04:14:17;100034.06;;;2.93;64.30
83448;BME280;73376;45.472;-73.568;2024-02-23T04:16:43;100049.06;;;2.96;64.26
83448;BME280;73376;45.472;-73.568;2024-02-23T04:19:09;100029.47;;;2.79;64.36
83448;BME280;73376;45.472;-73.568;2024-02-23T04:21:35;100017.66;;;2.80;64.78
83448;BME280;73376;45.472;-73.568;2024-02-23T04:24:01;100055.94;;;2.98;65.31
83448;BME280;73376;45.472;-73.568;2024-02-23T04:26:27;100026.94;;;2.77;65.12
83448;BME280;73376;45.472;-73.568;2024-02-23T04:28:53;100057.63;;;2.99;65.15
83448;BME280;73376;45.472;-73.568;2024-02-23T04:31:19;100031.41;;;2.85;65.59
83448;BME280;73376;45.472;-73.568;2024-02-23T04:33:48;100025.28;;;2.76;65.59
83448;BME280;73376;45.472;-73.568;2024-02-23T04:36:18;100057.25;;;3.02;66.13
83448;BME280;73376;45.472;-73.568;2024-02-23T04:38:47;100036.66;;;2.87;66.54
83448;BME280;73376;45.472;-73.568;2024-02-23T04:41:13;100047.09;;;2.90;66.89
83448;BME280;73376;45.472;-73.568;2024-02-23T04:43:42;100033.38;;;2.76;66.74
83448;BME280;73376;45.472;-73.568;2024-02-23T04:46:11;100018.25;;;2.67;67.47
83448;BME280;73376;45.472;-73.568;2024-02-23T04:48:38;100004.75;;;2.52;67.69
83448;BME280;73376;45.472;-73.568;2024-02-23T04:51:04;100032.13;;;2.64;67.82
83448;BME280;73376;45.472;-73.568;2024-02-23T04:53:30;99985.44;;;2.41;67.76
83448;BME280;73376;45.472;-73.568;2024-02-23T04:55:59;100042.59;;;2.82;67.70
83448;BME280;73376;45.472;-73.568;2024-02-23T04:58:27;99986.03;;;2.51;67.96
83448;BME280;73376;45.472;-73.568;2024-02-23T05:00:53;100051.19;;;2.86;67.71
83448;BME280;73376;45.472;-73.568;2024-02-23T05:03:21;100043.13;;;2.77;67.64
83448;BME280;73376;45.472;-73.568;2024-02-23T05:05:47;100047.81;;;2.83;68.16
83448;BME280;73376;45.472;-73.568;2024-02-23T05:08:15;100031.75;;;2.67;68.12
83448;BME280;73376;45.472;-73.568;2024-02-23T05:10:41;100053.22;;;2.83;68.48
83448;BME280;73376;45.472;-73.568;2024-02-23T05:13:07;100036.06;;;2.76;68.62
83448;BME280;73376;45.472;-73.568;2024-02-23T05:15:33;99975.47;;;2.41;68.73
83448;BME280;73376;45.472;-73.568;2024-02-23T05:17:59;100000.00;;;2.54;68.33
83448;BME280;73376;45.472;-73.568;2024-02-23T05:20:27;100012.03;;;2.67;68.75
83448;BME280;73376;45.472;-73.568;2024-02-23T05:22:53;100015.41;;;2.69;68.85
83448;BME280;73376;45.472;-73.568;2024-02-23T05:25:19;100005.13;;;2.64;68.89
83448;BME280;73376;45.472;-73.568;2024-02-23T05:27:47;99988.38;;;2.54;68.83
83448;BME280;73376;45.472;-73.568;2024-02-23T05:30:13;100029.47;;;2.79;68.77
83448;BME280;73376;45.472;-73.568;2024-02-23T05:32:39;100003.66;;;2.62;68.92
83448;BME280;73376;45.472;-73.568;2024-02-23T05:35:06;100002.44;;;2.64;69.15
83448;BME280;73376;45.472;-73.568;2024-02-23T05:37:32;100017.81;;;2.78;69.20
83448;BME280;73376;45.472;-73.568;2024-02-23T05:40:00;99996.22;;;2.64;69.29
83448;BME280;73376;45.472;-73.568;2024-02-23T05:42:32;99967.97;;;2.51;69.24
83448;BME280;73376;45.472;-73.568;2024-02-23T05:44:58;100005.72;;;2.74;69.48
83448;BME280;73376;45.472;-73.568;2024-02-23T05:47:26;99993.25;;;2.73;69.55
83448;BME280;73376;45.472;-73.568;2024-02-23T05:49:53;99987.94;;;2.65;69.85
83448;BME280;73376;45.472;-73.568;2024-02-23T05:52:19;99943.88;;;2.35;69.71
83448;BME280;73376;45.472;-73.568;2024-02-23T05:54:48;99998.75;;;2.65;69.58
83448;BME280;73376;45.472;-73.568;2024-02-23T05:57:16;99980.94;;;2.56;69.63
83448;BME280;73376;45.472;-73.568;2024-02-23T05:59:44;99995.00;;;2.66;69.78
83448;BME280;73376;45.472;-73.568;2024-02-23T06:02:10;99961.94;;;2.49;69.62
83448;BME280;73376;45.472;-73.568;2024-02-23T06:04:37;99995.66;;;2.68;70.11
83448;BME280;73376;45.472;-73.568;2024-02-23T06:07:03;99959.59;;;2.46;69.92
83448;BME280;73376;45.472;-73.568;2024-02-23T06:09:29;99939.94;;;2.37;70.07
83448;BME280;73376;45.472;-73.568;2024-02-23T06:11:55;99965.94;;;2.53;69.88
83448;BME280;73376;45.472;-73.568;2024-02-23T06:14:24;99982.06;;;2.62;70.15
83448;BME280;73376;45.472;-73.568;2024-02-23T06:16:50;99940.97;;;2.36;69.96
83448;BME280;73376;45.472;-73.568;2024-02-23T06:19:18;99962.22;;;2.54;70.12
83448;BME280;73376;45.472;-73.568;2024-02-23T06:21:48;99958.69;;;2.54;70.08
83448;BME280;73376;45.472;-73.568;2024-02-23T06:24:15;99978.44;;;2.69;70.04
83448;BME280;73376;45.472;-73.568;2024-02-23T06:26:43;99956.66;;;2.56;70.07
83448;BME280;73376;45.472;-73.568;2024-02-23T06:29:14;99929.81;;;2.40;69.82
83448;BME280;73376;45.472;-73.568;2024-02-23T06:31:43;99961.22;;;2.55;70.21
83448;BME280;73376;45.472;-73.568;2024-02-23T06:34:14;99912.41;;;2.27;70.16
83448;BME280;73376;45.472;-73.568;2024-02-23T06:36:41;99927.31;;;2.38;69.90
83448;BME280;73376;45.472;-73.568;2024-02-23T06:39:09;99967.19;;;2.66;69.87
83448;BME280;73376;45.472;-73.568;2024-02-23T06:41:37;99947.06;;;2.53;69.93
83448;BME280;73376;45.472;-73.568;2024-02-23T06:44:05;99948.09;;;2.52;70.06
83448;BME280;73376;45.472;-73.568;2024-02-23T06:46:30;99952.56;;;2.60;69.91
83448;BME280;73376;45.472;-73.568;2024-02-23T06:48:56;99919.03;;;2.40;69.96
83448;BME280;73376;45.472;-73.568;2024-02-23T06:51:22;99921.84;;;2.46;70.16
83448;BME280;73376;45.472;-73.568;2024-02-23T06:53:48;99922.09;;;2.51;69.79
83448;BME280;73376;45.472;-73.568;2024-02-23T06:56:14;99914.94;;;2.44;69.65
83448;BME280;73376;45.472;-73.568;2024-02-23T06:58:40;99961.78;;;2.66;69.86
83448;BME280;73376;45.472;-73.568;2024-02-23T07:01:06;99959.25;;;2.64;69.89
83448;BME280;73376;45.472;-73.568;2024-02-23T07:03:36;99952.19;;;2.63;69.92
83448;BME280;73376;45.472;-73.568;2024-02-23T07:06:03;99912.97;;;2.37;69.99
83448;BME280;73376;45.472;-73.568;2024-02-23T07:08:29;99940.94;;;2.59;69.98
83448;BME280;73376;45.472;-73.568;2024-02-23T07:10:57;99926.03;;;2.49;70.06
83448;BME280;73376;45.472;-73.568;2024-02-23T07:13:25;99917.84;;;2.42;69.89
83448;BME280;73376;45.472;-73.568;2024-02-23T07:15:51;99938.03;;;2.61;69.73
83448;BME280;73376;45.472;-73.568;2024-02-23T07:18:17;99928.16;;;2.53;70.00
83448;BME280;73376;45.472;-73.568;2024-02-23T07:20:43;99938.69;;;2.63;70.06
83448;BME280;73376;45.472;-73.568;2024-02-23T07:23:10;99910.22;;;2.46;70.11
83448;BME280;73376;45.472;-73.568;2024-02-23T07:25:36;99905.47;;;2.48;69.99
83448;BME280;73376;45.472;-73.568;2024-02-23T07:28:02;99922.41;;;2.56;70.10
83448;BME280;73376;45.472;-73.568;2024-02-23T07:30:28;99931.81;;;2.60;69.92
83448;BME280;73376;45.472;-73.568;2024-02-23T07:32:54;99915.16;;;2.57;69.93
83448;BME280;73376;45.472;-73.568;2024-02-23T07:35:20;99861.16;;;2.27;70.07
83448;BME280;73376;45.472;-73.568;2024-02-23T07:37:46;99894.75;;;2.54;69.81
83448;BME280;73376;45.472;-73.568;2024-02-23T07:40:12;99905.66;;;2.61;69.87
83448;BME280;73376;45.472;-73.568;2024-02-23T07:42:40;99888.00;;;2.58;69.89
83448;BME280;73376;45.472;-73.568;2024-02-23T07:45:07;99887.34;;;2.56;70.04
83448;BME280;73376;45.472;-73.568;2024-02-23T07:47:34;99873.66;;;2.58;70.00
83448;BME280;73376;45.472;-73.568;2024-02-23T07:50:00;99893.09;;;2.68;70.02
83448;BME280;73376;45.472;-73.568;2024-02-23T07:52:26;99833.44;;;2.33;69.88
83448;BME280;73376;45.472;-73.568;2024-02-23T07:54:53;99875.59;;;2.64;69.86
83448;BME280;73376;45.472;-73.568;2024-02-23T07:57:19;99852.84;;;2.52;70.10
83448;BME280;73376;45.472;-73.568;2024-02-23T07:59:46;99845.09;;;2.49;69.94
83448;BME280;73376;45.472;-73.568;2024-02-23T08:02:12;99855.31;;;2.53;70.06
83448;BME280;73376;45.472;-73.568;2024-02-23T08:04:39;99837.84;;;2.49;70.07
83448;BME280;73376;45.472;-73.568;2024-02-23T08:07:05;99845.28;;;2.47;70.16
83448;BME280;73376;45.472;-73.568;2024-02-23T08:09:31;99867.16;;;2.67;70.30
83448;BME280;73376;45.472;-73.568;2024-02-23T08:11:57;99841.16;;;2.51;70.13
83448;BME280;73376;45.472;-73.568;2024-02-23T08:14:28;99825.94;;;2.44;70.12
83448;BME280;73376;45.472;-73.568;2024-02-23T08:16:54;99848.34;;;2.59;70.42
83448;BME280;73376;45.472;-73.568;2024-02-23T08:19:20;99830.22;;;2.53;70.29
83448;BME280;73376;45.472;-73.568;2024-02-23T08:21:46;99847.31;;;2.60;70.15
83448;BME280;73376;45.472;-73.568;2024-02-23T08:24:12;99855.16;;;2.70;70.08
83448;BME280;73376;45.472;-73.568;2024-02-23T08:26:38;99802.03;;;2.41;69.98
83448;BME280;73376;45.472;-73.568;2024-02-23T08:29:05;99768.63;;;2.27;70.10
83448;BME280;73376;45.472;-73.568;2024-02-23T08:31:31;99822.22;;;2.59;70.13
83448;BME280;73376;45.472;-73.568;2024-02-23T08:33:57;99798.56;;;2.47;69.85
83448;BME280;73376;45.472;-73.568;2024-02-23T08:36:23;99801.38;;;2.53;70.18
83448;BME280;73376;45.472;-73.568;2024-02-23T08:38:49;99815.25;;;2.65;70.03
83448;BME280;73376;45.472;-73.568;2024-02-23T08:41:14;99795.13;;;2.53;69.97
83448;BME280;73376;45.472;-73.568;2024-02-23T08:43:40;99825.09;;;2.73;70.12
83448;BME280;73376;45.472;-73.568;2024-02-23T08:46:06;99779.69;;;2.47;70.36
83448;BME280;73376;45.472;-73.568;2024-02-23T08:48:33;99809.44;;;2.68;70.36
83448;BME280;73376;45.472;-73.568;2024-02-23T08:51:01;99808.59;;;2.68;70.46
83448;BME280;73376;45.472;-73.568;2024-02-23T08:53:29;99764.25;;;2.41;70.28
83448;BME280;73376;45.472;-73.568;2024-02-23T08:55:55;99786.59;;;2.49;70.17
83448;BME280;73376;45.472;-73.568;2024-02-23T08:58:21;99779.06;;;2.45;70.37
83448;BME280;73376;45.472;-73.568;2024-02-23T09:00:47;99751.53;;;2.34;70.00
83448;BME280;73376;45.472;-73.568;2024-02-23T09:03:13;99789.00;;;2.59;70.25
83448;BME280;73376;45.472;-73.568;2024-02-23T09:05:39;99776.25;;;2.53;69.85
83448;BME280;73376;45.472;-73.568;2024-02-23T09:08:06;99759.41;;;2.51;70.09
83448;BME280;73376;45.472;-73.568;2024-02-23T09:10:32;99784.53;;;2.66;70.28
83448;BME280;73376;45.472;-73.568;2024-02-23T09:12:58;99776.34;;;2.59;70.19
83448;BME280;73376;45.472;-73.568;2024-02-23T09:15:27;99756.06;;;2.49;70.13
83448;BME280;73376;45.472;-73.568;2024-02-23T09:17:53;99753.47;;;2.41;70.35
83448;BME280;73376;45.472;-73.568;2024-02-23T09:20:21;99748.44;;;2.37;70.29
83448;BME280;73376;45.472;-73.568;2024-02-23T09:22:48;99798.38;;;2.63;70.27
83448;BME280;73376;45.472;-73.568;2024-02-23T09:25:14;99757.19;;;2.40;70.42
83448;BME280;73376;45.472;-73.568;2024-02-23T09:27:43;99753.66;;;2.39;70.45
83448;BME280;73376;45.472;-73.568;2024-02-23T09:30:11;99772.25;;;2.49;70.18
83448;BME280;73376;45.472;-73.568;2024-02-23T09:32:38;99716.66;;;2.18;70.41
83448;BME280;73376;45.472;-73.568;2024-02-23T09:35:06;99791.03;;;2.57;70.56
83448;BME280;73376;45.472;-73.568;2024-02-23T09:37:32;99784.34;;;2.53;70.70
83448;BME280;73376;45.472;-73.568;2024-02-23T09:40:01;99799.06;;;2.65;70.64
83448;BME280;73376;45.472;-73.568;2024-02-23T09:42:28;99802.75;;;2.64;70.85
83448;BME280;73376;45.472;-73.568;2024-02-23T09:44:58;99770.09;;;2.44;70.88
83448;BME280;73376;45.472;-73.568;2024-02-23T09:47:28;99736.28;;;2.27;70.76
83448;BME280;73376;45.472;-73.568;2024-02-23T09:49:55;99794.84;;;2.63;70.88
83448;BME280;73376;45.472;-73.568;2024-02-23T09:52:22;99789.09;;;2.51;71.00
83448;BME280;73376;45.472;-73.568;2024-02-23T09:54:48;99797.94;;;2.59;71.05
83448;BME280;73376;45.472;-73.568;2024-02-23T09:57:16;99789.28;;;2.49;71.33
83448;BME280;73376;45.472;-73.568;2024-02-23T09:59:44;99780.44;;;2.41;71.46
83448;BME280;73376;45.472;-73.568;2024-02-23T10:02:15;99803.91;;;2.55;71.48
83448;BME280;73376;45.472;-73.568;2024-02-23T10:04:42;99803.22;;;2.53;71.71
83448;BME280;73376;45.472;-73.568;2024-02-23T10:07:15;99788.81;;;2.46;71.55
83448;BME280;73376;45.472;-73.568;2024-02-23T10:09:41;99787.53;;;2.42;71.93
83448;BME280;73376;45.472;-73.568;2024-02-23T10:12:08;99799.88;;;2.51;71.73
83448;BME280;73376;45.472;-73.568;2024-02-23T10:14:34;99768.09;;;2.31;72.06
83448;BME280;73376;45.472;-73.568;2024-02-23T10:17:02;99782.13;;;2.42;71.38
83448;BME280;73376;45.472;-73.568;2024-02-23T10:19:29;99773.75;;;2.36;71.79
83448;BME280;73376;45.472;-73.568;2024-02-23T10:22:00;99796.34;;;2.50;71.77
83448;BME280;73376;45.472;-73.568;2024-02-23T10:24:28;99789.19;;;2.43;71.86
83448;BME280;73376;45.472;-73.568;2024-02-23T10:27:00;99806.97;;;2.52;72.13
83448;BME280;73376;45.472;-73.568;2024-02-23T10:29:27;99762.78;;;2.23;71.99
83448;BME280;73376;45.472;-73.568;2024-02-23T10:31:56;99801.28;;;2.47;72.00
83448;BME280;73376;45.472;-73.568;2024-02-23T10:34:24;99789.75;;;2.38;72.13
83448;BME280;73376;45.472;-73.568;2024-02-23T10:36:53;99759.63;;;2.20;72.20
83448;BME280;73376;45.472;-73.568;2024-02-23T10:39:22;99767.78;;;2.26;72.27
83448;BME280;73376;45.472;-73.568;2024-02-23T10:42:00;99753.38;;;2.19;72.26
83448;BME280;73376;45.472;-73.568;2024-02-23T10:44:29;99784.91;;;2.33;72.46
83448;BME280;73376;45.472;-73.568;2024-02-23T10:46:56;99771.53;;;2.25;72.29
83448;BME280;73376;45.472;-73.568;2024-02-23T10:49:24;99793.75;;;2.42;72.52
83448;BME280;73376;45.472;-73.568;2024-02-23T10:51:55;99771.53;;;2.25;72.41
83448;BME280;73376;45.472;-73.568;2024-02-23T10:54:25;99741.00;;;2.10;72.07
83448;BME280;73376;45.472;-73.568;2024-02-23T10:56:52;99778.03;;;2.31;72.07
83448;BME280;73376;45.472;-73.568;2024-02-23T10:59:21;99735.63;;;2.10;72.02
83448;BME280;73376;45.472;-73.568;2024-02-23T11:01:50;99788.53;;;2.41;71.97
83448;BME280;73376;45.472;-73.568;2024-02-23T11:04:17;99743.63;;;2.18;72.05
83448;BME280;73376;45.472;-73.568;2024-02-23T11:06:51;99749.94;;;2.25;71.94
83448;BME280;73376;45.472;-73.568;2024-02-23T11:09:21;99775.41;;;2.37;72.30
83448;BME280;73376;45.472;-73.568;2024-02-23T11:11:57;99719.34;;;2.03;71.96
83448;BME280;73376;45.472;-73.568;2024-02-23T11:14:39;99769.19;;;2.37;71.81
83448;BME280;73376;45.472;-73.568;2024-02-23T11:17:05;99752.75;;;2.32;71.85
83448;BME280;73376;45.472;-73.568;2024-02-23T11:22:01;99767.97;;;2.40;72.04
83448;BME280;73376;45.472;-73.568;2024-02-23T11:24:32;99774.31;;;2.47;72.13
83448;BME280;73376;45.472;-73.568;2024-02-23T11:27:01;99751.44;;;2.28;72.06
83448;BME280;73376;45.472;-73.568;2024-02-23T11:29:36;99760.94;;;2.39;71.81
83448;BME280;73376;45.472;-73.568;2024-02-23T11:32:15;99763.97;;;2.50;71.68
83448;BME280;73376;45.472;-73.568;2024-02-23T11:34:41;99759.31;;;2.44;71.68
83448;BME280;73376;45.472;-73.568;2024-02-23T11:37:11;99760.56;;;2.42;71.91
83448;BME280;73376;45.472;-73.568;2024-02-23T11:39:38;99742.03;;;2.24;72.18
83448;BME280;73376;45.472;-73.568;2024-02-23T11:42:06;99742.97;;;2.31;72.12
83448;BME280;73376;45.472;-73.568;2024-02-23T11:44:32;99716.59;;;2.11;72.05
83448;BME280;73376;45.472;-73.568;2024-02-23T11:46:58;99771.34;;;2.42;72.28
83448;BME280;73376;45.472;-73.568;2024-02-23T11:49:29;99766.50;;;2.37;72.18
83448;BME280;73376;45.472;-73.568;2024-02-23T11:51:55;99773.00;;;2.43;72.17
83448;BME280;73376;45.472;-73.568;2024-02-23T11:54:24;99774.50;;;2.45;72.03
83448;BME280;73376;45.472;-73.568;2024-02-23T11:56:50;99774.31;;;2.47;71.95
83448;BME280;73376;45.472;-73.568;2024-02-23T11:59:21;99766.22;;;2.47;72.07
83448;BME280;73376;45.472;-73.568;2024-02-23T12:01:47;99750.97;;;2.39;71.96
83448;BME280;73376;45.472;-73.568;2024-02-23T12:04:14;99768.53;;;2.50;72.19
83448;BME280;73376;45.472;-73.568;2024-02-23T12:06:42;99734.41;;;2.27;71.78
83448;BME280;73376;45.472;-73.568;2024-02-23T12:09:08;99732.66;;;2.34;72.10
83448;BME280;73376;45.472;-73.568;2024-02-23T12:11:35;99734.31;;;2.35;71.66
83448;BME280;73376;45.472;-73.568;2024-02-23T12:14:06;99753.38;;;2.34;71.68
83448;BME280;73376;45.472;-73.568;2024-02-23T12:16:37;99783.31;;;2.54;71.91
83448;BME280;73376;45.472;-73.568;2024-02-23T12:19:03;99738.88;;;2.35;71.87
83448;BME280;73376;45.472;-73.568;2024-02-23T12:21:29;99754.59;;;2.46;71.79
83448;BME280;73376;45.472;-73.568;2024-02-23T12:23:55;99752.72;;;2.47;71.73
83448;BME280;73376;45.472;-73.568;2024-02-23T12:26:21;99739.50;;;2.37;71.97
83448;BME280;73376;45.472;-73.568;2024-02-23T12:28:47;99765.47;;;2.53;71.79
83448;BME280;73376;45.472;-73.568;2024-02-23T12:31:16;99768.91;;;2.62;71.67
83448;BME280;73376;45.472;-73.568;2024-02-23T12:33:49;99755.50;;;2.53;71.57
83448;BME280;73376;45.472;-73.568;2024-02-23T12:36:15;99750.69;;;2.49;71.67
83448;BME280;73376;45.472;-73.568;2024-02-23T12:38:42;99778.94;;;2.68;71.68
83448;BME280;73376;45.472;-73.568;2024-02-23T12:41:08;99740.06;;;2.47;71.67
83448;BME280;73376;45.472;-73.568;2024-02-23T12:43:34;99752.22;;;2.58;71.56
83448;BME280;73376;45.472;-73.568;2024-02-23T12:46:02;99757.91;;;2.63;71.64
83448;BME280;73376;45.472;-73.568;2024-02-23T12:48:32;99745.16;;;2.57;71.36
83448;BME280;73376;45.472;-73.568;2024-02-23T12:51:00;99783.47;;;2.82;71.46
83448;BME280;73376;45.472;-73.568;2024-02-23T12:53:39;99785.59;;;2.87;71.41
83448;BME280;73376;45.472;-73.568;2024-02-23T12:56:06;99750.34;;;2.73;71.49
83448;BME280;73376;45.472;-73.568;2024-02-23T12:58:40;99759.75;;;2.77;71.28